Time;durP1;ratioP1;P1;durP2;ratioP2;P2;SDS_P1;SDS_P2;PMS_P1;PMS_P2;Temp;Humidity;BMP_temperature;BMP_pressure;BME280_temperature;BME280_humidity;BME280_pressure;Samples;Min_cycle;Max_cycle;Signal;HPM_P1;HPM_P2
2021/07/31 00:01:34;;;;;;;3.15;3.05;;;19.50;58.60;;;;;;5058895;28;20048;-85
2021/07/31 00:04:00;;;;;;;3.28;3.17;;;19.50;58.60;;;;;;5056775;28;20021;-85
2021/07/31 00:06:26;;;;;;;3.15;3.05;;;19.50;58.70;;;;;;5058051;28;20028;-85
2021/07/31 00:08:53;;;;;;;2.75;2.65;;;19.50;58.80;;;;;;5056317;28;20043;-84
2021/07/31 00:11:19;;;;;;;3.38;3.17;;;19.40;58.90;;;;;;5037301;28;20029;-85
2021/07/31 00:13:45;;;;;;;3.00;2.90;;;19.40;58.90;;;;;;5060117;28;20029;-85
2021/07/31 00:16:11;;;;;;;3.47;3.28;;;19.30;59.00;;;;;;5056846;28;20033;-85
2021/07/31 00:18:37;;;;;;;2.72;2.63;;;19.30;59.10;;;;;;5056483;28;20036;-85
2021/07/31 00:21:03;;;;;;;2.83;2.72;;;19.30;59.20;;;;;;5057949;28;20033;-84
2021/07/31 00:23:29;;;;;;;2.55;2.45;;;19.30;59.30;;;;;;5037066;28;20417;-84
2021/07/31 00:25:56;;;;;;;2.60;2.50;;;19.30;59.30;;;;;;5057604;28;20032;-84
2021/07/31 00:28:22;;;;;;;2.97;2.78;;;19.30;59.40;;;;;;5040423;28;20037;-85
2021/07/31 00:30:49;;;;;;;3.00;2.80;;;19.30;59.40;;;;;;5057224;28;20029;-85
2021/07/31 00:33:15;;;;;;;2.53;2.42;;;19.30;59.50;;;;;;5038720;28;20397;-85
2021/07/31 00:35:41;;;;;;;2.92;2.72;;;19.20;59.60;;;;;;5053120;28;20037;-85
2021/07/31 00:38:08;;;;;;;3.30;3.08;;;19.20;59.60;;;;;;5038500;28;20033;-85
2021/07/31 00:40:35;;;;;;;2.60;2.50;;;19.20;59.70;;;;;;5055329;28;20029;-85
2021/07/31 00:43:07;;;;;;;2.28;2.17;;;19.20;59.80;;;;;;5055009;28;20029;-85
2021/07/31 00:45:33;;;;;;;2.50;2.40;;;19.20;59.80;;;;;;5022141;28;20040;-84
2021/07/31 00:48:00;;;;;;;2.55;2.45;;;19.10;59.80;;;;;;5055815;28;20028;-85
2021/07/31 00:50:27;;;;;;;2.50;2.40;;;19.10;59.90;;;;;;5033924;28;20573;-83
2021/07/31 00:52:54;;;;;;;2.65;2.55;;;19.20;59.90;;;;;;5040561;28;20028;-84
2021/07/31 00:55:20;;;;;;;2.47;2.38;;;19.10;59.90;;;;;;5056239;28;20032;-85
2021/07/31 00:57:46;;;;;;;2.38;2.28;;;19.20;60.00;;;;;;5020411;28;20501;-84
2021/07/31 01:00:13;;;;;;;2.47;2.38;;;19.10;60.00;;;;;;5004029;28;20036;-84
2021/07/31 01:02:39;;;;;;;2.58;2.47;;;19.10;60.00;;;;;;5035388;28;20024;-84
2021/07/31 01:05:05;;;;;;;2.50;2.30;;;19.10;60.20;;;;;;5038634;28;20145;-85
2021/07/31 01:07:37;;;;;;;2.80;2.70;;;19.10;60.20;;;;;;5039529;28;20367;-85
2021/07/31 01:10:03;;;;;;;2.30;2.20;;;19.10;60.40;;;;;;5038607;28;20029;-84
2021/07/31 01:12:30;;;;;;;2.30;2.20;;;19.10;60.40;;;;;;5021625;28;20402;-85
2021/07/31 01:14:56;;;;;;;2.50;2.30;;;19.00;60.40;;;;;;5054913;28;20039;-84
2021/07/31 01:17:23;;;;;;;2.40;2.30;;;19.00;60.50;;;;;;5051804;28;20402;-84
2021/07/31 01:19:49;;;;;;;2.28;2.17;;;19.00;60.70;;;;;;5039754;28;20561;-85
2021/07/31 01:22:15;;;;;;;2.45;2.35;;;18.90;60.70;;;;;;5036602;28;20040;-86
2021/07/31 01:24:41;;;;;;;2.97;2.78;;;18.90;60.80;;;;;;5055864;28;20029;-85
2021/07/31 01:27:07;;;;;;;2.40;2.30;;;18.90;60.90;;;;;;5021290;28;20037;-84
2021/07/31 01:29:33;;;;;;;2.85;2.60;;;18.90;61.00;;;;;;5050643;28;20471;-85
2021/07/31 01:31:59;;;;;;;2.38;2.28;;;18.90;61.10;;;;;;5013799;28;1219869;-86
2021/07/31 01:34:25;;;;;;;2.20;2.10;;;18.90;61.20;;;;;;5056154;28;20037;-85
2021/07/31 01:36:51;;;;;;;3.22;2.95;;;18.90;61.20;;;;;;5020873;28;20029;-86
2021/07/31 01:39:18;;;;;;;2.30;2.20;;;18.90;61.30;;;;;;5056462;28;20484;-84
2021/07/31 01:41:44;;;;;;;2.10;2.00;;;18.90;61.40;;;;;;5053763;28;20028;-85
2021/07/31 01:44:10;;;;;;;2.30;2.20;;;18.80;61.40;;;;;;5037956;28;20025;-85
2021/07/31 01:46:36;;;;;;;2.40;2.30;;;18.80;61.40;;;;;;5053611;28;20037;-84
2021/07/31 01:49:02;;;;;;;2.60;2.50;;;18.80;62.30;;;;;;5037943;28;20041;-84
2021/07/31 01:51:28;;;;;;;2.30;2.20;;;18.80;61.50;;;;;;5038688;28;20032;-85
2021/07/31 01:53:55;;;;;;;2.60;2.42;;;18.80;61.60;;;;;;5055313;28;20667;-84
2021/07/31 01:56:21;;;;;;;2.30;2.20;;;18.80;61.70;;;;;;5035037;28;20423;-82
2021/07/31 01:58:47;;;;;;;6.88;2.30;;;18.70;61.70;;;;;;5058053;28;20033;-84
2021/07/31 02:01:13;;;;;;;2.40;2.30;;;18.70;61.80;;;;;;5032917;28;20029;-85
2021/07/31 02:03:39;;;;;;;2.38;2.28;;;18.70;61.90;;;;;;5047629;28;20021;-85
2021/07/31 02:06:05;;;;;;;2.60;2.40;;;18.70;62.00;;;;;;5045747;28;20378;-83
2021/07/31 02:08:31;;;;;;;2.20;2.10;;;18.70;62.00;;;;;;5030360;28;20041;-84
2021/07/31 02:10:57;;;;;;;2.40;2.30;;;18.70;62.10;;;;;;5047268;28;20501;-86
2021/07/31 02:13:23;;;;;;;2.20;2.10;;;18.60;62.10;;;;;;5048098;28;20036;-85
2021/07/31 02:15:49;;;;;;;2.30;2.20;;;18.70;62.30;;;;;;5029874;28;20076;-84
2021/07/31 02:18:16;;;;;;;2.35;2.25;;;18.70;62.20;;;;;;5047652;28;20027;-85
2021/07/31 02:20:43;;;;;;;12.13;2.90;;;18.60;62.20;;;;;;5048038;28;20036;-85
2021/07/31 02:23:09;;;;;;;2.55;2.45;;;18.60;62.30;;;;;;5050277;28;20025;-85
2021/07/31 02:25:35;;;;;;;2.40;2.30;;;18.60;62.40;;;;;;5048619;28;20497;-85
2021/07/31 02:28:01;;;;;;;2.70;2.53;;;18.70;62.40;;;;;;5046671;28;20044;-84
2021/07/31 02:30:27;;;;;;;2.33;2.22;;;18.60;62.40;;;;;;5047334;28;20029;-84
2021/07/31 02:32:53;;;;;;;2.30;2.20;;;18.60;62.50;;;;;;5048952;28;20045;-83
2021/07/31 02:35:20;;;;;;;2.10;2.00;;;18.60;62.50;;;;;;5031889;28;20043;-84
2021/07/31 02:37:46;;;;;;;7.55;2.58;;;18.60;62.60;;;;;;5030154;28;20029;-85
2021/07/31 02:40:12;;;;;;;5.22;2.30;;;18.60;62.60;;;;;;5053828;28;20033;-85
2021/07/31 02:42:38;;;;;;;2.20;2.10;;;18.60;62.70;;;;;;5037557;28;20029;-85
2021/07/31 02:45:05;;;;;;;2.20;2.10;;;18.60;62.80;;;;;;5054821;28;20028;-84
2021/07/31 02:47:31;;;;;;;2.40;2.20;;;18.60;62.90;;;;;;5015352;28;20508;-84
2021/07/31 02:49:57;;;;;;;2.20;2.10;;;18.50;62.80;;;;;;5062797;28;20024;-86
2021/07/31 02:52:23;;;;;;;2.58;2.38;;;18.50;62.90;;;;;;5066413;28;20500;-84
2021/07/31 02:54:50;;;;;;;2.40;2.30;;;18.50;63.00;;;;;;5058861;28;20040;-85
2021/07/31 02:57:16;;;;;;;2.20;2.10;;;18.50;63.10;;;;;;5002893;28;20106;-84
2021/07/31 02:59:42;;;;;;;2.22;2.13;;;18.50;63.20;;;;;;5052080;28;20032;-85
2021/07/31 03:02:08;;;;;;;2.22;2.13;;;18.40;63.20;;;;;;5054069;28;20032;-84
2021/07/31 03:04:34;;;;;;;2.42;2.33;;;18.40;63.30;;;;;;5037958;28;20048;-84
2021/07/31 03:07:00;;;;;;;2.17;2.08;;;18.40;63.30;;;;;;5054650;28;20025;-83
2021/07/31 03:09:27;;;;;;;2.17;2.08;;;18.40;63.40;;;;;;5037272;28;20037;-84
2021/07/31 03:11:53;;;;;;;2.20;2.10;;;18.40;64.30;;;;;;5053378;28;20029;-84
2021/07/31 03:14:19;;;;;;;2.20;2.10;;;18.40;63.50;;;;;;5051642;28;20041;-84
2021/07/31 03:16:45;;;;;;;2.47;2.38;;;18.30;63.50;;;;;;5038219;28;20426;-84
2021/07/31 03:19:11;;;;;;;2.50;2.40;;;18.30;63.60;;;;;;5054790;28;20021;-85
2021/07/31 03:21:37;;;;;;;2.08;1.98;;;18.30;64.40;;;;;;5054719;28;20482;-86
2021/07/31 03:24:03;;;;;;;2.17;2.08;;;18.30;63.70;;;;;;5037095;28;20032;-85
2021/07/31 03:26:30;;;;;;;2.03;1.92;;;18.20;63.80;;;;;;5049467;28;20389;-84
2021/07/31 03:28:56;;;;;;;2.10;2.00;;;18.30;63.90;;;;;;5055023;28;20033;-84
2021/07/31 03:31:22;;;;;;;2.10;2.00;;;18.30;63.90;;;;;;5053811;28;20413;-83
2021/07/31 03:33:48;;;;;;;2.10;2.00;;;18.30;63.90;;;;;;5035395;28;20041;-85
2021/07/31 03:36:14;;;;;;;2.20;2.10;;;18.20;63.90;;;;;;5036978;28;20401;-84
2021/07/31 03:38:40;;;;;;;2.63;2.40;;;18.20;64.00;;;;;;5051326;28;20028;-84
2021/07/31 03:41:07;;;;;;;8.80;1.95;;;18.20;64.00;;;;;;5054565;28;20033;-85
2021/07/31 03:43:33;;;;;;;2.08;1.98;;;18.30;64.00;;;;;;5037008;28;20037;-84
2021/07/31 03:45:59;;;;;;;2.08;1.98;;;18.30;64.10;;;;;;5019471;28;20029;-85
2021/07/31 03:48:25;;;;;;;14.43;2.30;;;18.20;64.00;;;;;;5036342;28;20060;-84
2021/07/31 03:50:51;;;;;;;4.43;1.80;;;18.30;64.10;;;;;;5052867;28;20025;-84
2021/07/31 03:53:17;;;;;;;1.98;1.88;;;18.30;64.10;;;;;;5034795;28;20029;-84
2021/07/31 03:55:47;;;;;;;2.03;1.92;;;18.30;64.10;;;;;;5053272;28;20029;-84
2021/07/31 03:58:13;;;;;;;1.90;1.80;;;18.20;64.10;;;;;;5020287;28;20397;-84
2021/07/31 04:00:40;;;;;;;2.03;1.92;;;18.20;64.10;;;;;;5019344;28;20500;-84
2021/07/31 04:03:10;;;;;;;3.05;2.25;;;18.20;64.10;;;;;;5019814;28;20040;-84
2021/07/31 04:05:39;;;;;;;2.20;2.10;;;18.30;64.20;;;;;;5050501;28;20034;-83
2021/07/31 04:08:06;;;;;;;1.90;1.80;;;18.20;64.20;;;;;;5036957;28;20394;-84
2021/07/31 04:10:32;;;;;;;2.00;1.90;;;18.30;64.20;;;;;;5036825;28;20044;-85
2021/07/31 04:12:58;;;;;;;1.90;1.80;;;18.20;64.20;;;;;;5052639;28;20056;-84
2021/07/31 04:15:24;;;;;;;2.22;2.13;;;18.20;64.30;;;;;;5001562;28;20029;-84
2021/07/31 04:17:50;;;;;;;1.98;1.88;;;18.20;64.40;;;;;;5034610;28;20477;-84
2021/07/31 04:20:16;;;;;;;2.03;1.92;;;18.20;64.40;;;;;;5051763;28;20036;-85
2021/07/31 04:22:43;;;;;;;2.30;2.20;;;18.20;64.40;;;;;;5056123;28;20026;-85
2021/07/31 04:25:09;;;;;;;2.00;1.90;;;18.20;64.50;;;;;;5038181;28;20036;-84
2021/07/31 04:27:35;;;;;;;2.00;1.90;;;18.20;64.50;;;;;;5057733;28;20040;-84
2021/07/31 04:30:01;;;;;;;2.28;2.10;;;18.20;64.50;;;;;;5056060;28;20417;-84
2021/07/31 04:32:28;;;;;;;1.98;1.88;;;18.20;64.60;;;;;;5019079;28;20045;-86
2021/07/31 04:34:54;;;;;;;2.03;1.92;;;18.20;64.60;;;;;;5059251;28;20044;-84
2021/07/31 04:37:20;;;;;;;1.90;1.80;;;18.20;64.60;;;;;;5056848;28;20041;-85
2021/07/31 04:39:46;;;;;;;1.90;1.80;;;18.20;64.70;;;;;;5039836;28;20040;-86
2021/07/31 04:42:12;;;;;;;1.80;1.70;;;18.10;64.70;;;;;;5056510;28;20405;-83
2021/07/31 04:44:38;;;;;;;1.90;1.80;;;18.10;64.80;;;;;;5036201;28;20025;-84
2021/07/31 04:47:04;;;;;;;2.22;2.13;;;18.10;64.80;;;;;;5057539;28;20393;-82
2021/07/31 04:49:34;;;;;;;2.22;2.13;;;18.10;64.80;;;;;;5055340;28;20398;-83
2021/07/31 04:52:00;;;;;;;1.90;1.80;;;18.10;64.80;;;;;;5055821;28;20028;-84
2021/07/31 04:54:27;;;;;;;2.33;2.22;;;18.10;64.80;;;;;;5055982;28;20381;-85
2021/07/31 04:56:53;;;;;;;2.00;1.90;;;18.10;64.90;;;;;;5050717;28;20032;-83
2021/07/31 04:59:19;;;;;;;2.08;1.98;;;18.10;65.00;;;;;;5035993;28;20370;-84
2021/07/31 05:01:45;;;;;;;1.92;1.83;;;18.10;65.00;;;;;;5058731;28;20029;-84
2021/07/31 05:04:11;;;;;;;2.20;2.08;;;18.00;65.10;;;;;;5057084;28;20025;-84
2021/07/31 05:06:38;;;;;;;1.92;1.83;;;18.00;65.10;;;;;;5057245;28;20058;-84
2021/07/31 05:09:05;;;;;;;1.95;1.85;;;18.10;65.20;;;;;;5056314;28;20051;-84
2021/07/31 05:11:31;;;;;;;1.88;1.77;;;18.00;65.20;;;;;;5017848;28;20029;-85
2021/07/31 05:13:57;;;;;;;1.92;1.83;;;18.00;65.20;;;;;;5041101;28;20036;-84
2021/07/31 05:16:26;;;;;;;2.17;2.08;;;18.00;65.30;;;;;;5056452;28;20066;-85
2021/07/31 05:18:52;;;;;;;5.75;2.63;;;18.00;65.30;;;;;;5056879;28;20025;-84
2021/07/31 05:21:18;;;;;;;1.92;1.83;;;18.00;65.30;;;;;;5022278;28;20497;-84
2021/07/31 05:23:44;;;;;;;1.90;1.80;;;18.10;65.30;;;;;;5054024;28;20040;-85
2021/07/31 05:26:10;;;;;;;1.98;1.88;;;18.10;65.40;;;;;;5055780;28;20032;-84
2021/07/31 05:28:36;;;;;;;2.08;1.98;;;18.10;65.30;;;;;;5054265;28;20489;-85
2021/07/31 05:31:02;;;;;;;2.28;2.17;;;18.10;65.20;;;;;;5020230;28;20397;-84
2021/07/31 05:33:28;;;;;;;2.30;2.17;;;18.10;65.30;;;;;;5056693;28;20040;-84
2021/07/31 05:35:55;;;;;;;1.90;1.80;;;18.10;65.30;;;;;;5054222;28;20032;-84
2021/07/31 05:38:21;;;;;;;2.70;2.50;;;18.20;65.30;;;;;;5035104;28;20044;-84
2021/07/31 05:40:47;;;;;;;1.83;1.73;;;18.20;65.30;;;;;;5058174;28;20036;-84
2021/07/31 05:43:13;;;;;;;2.17;2.08;;;18.20;65.30;;;;;;5038626;28;20040;-85
2021/07/31 05:45:39;;;;;;;2.10;2.00;;;18.30;65.30;;;;;;5055824;28;20473;-84
2021/07/31 05:48:05;;;;;;;2.00;1.90;;;18.30;65.20;;;;;;5038480;28;20033;-83
2021/07/31 05:50:31;;;;;;;2.17;2.08;;;18.40;65.20;;;;;;5001322;28;20061;-85
2021/07/31 05:52:57;;;;;;;2.33;2.22;;;18.40;65.20;;;;;;5058113;28;20021;-85
2021/07/31 05:55:23;;;;;;;6.30;2.40;;;18.40;65.10;;;;;;5055888;28;20371;-84
2021/07/31 05:57:49;;;;;;;2.17;2.05;;;18.50;65.10;;;;;;5021918;28;20029;-84
2021/07/31 06:00:16;;;;;;;2.10;2.00;;;18.50;65.10;;;;;;5055010;28;20064;-84
2021/07/31 06:02:42;;;;;;;2.00;1.90;;;18.50;65.00;;;;;;5035331;28;20029;-86
2021/07/31 06:05:11;;;;;;;2.40;2.30;;;18.50;65.00;;;;;;5021690;28;20036;-84
2021/07/31 06:07:37;;;;;;;2.50;2.28;;;18.50;65.00;;;;;;5056486;28;20041;-84
2021/07/31 06:10:03;;;;;;;6.15;2.28;;;18.60;65.10;;;;;;5054085;28;20406;-84
2021/07/31 06:12:29;;;;;;;2.10;2.00;;;18.60;65.10;;;;;;5038170;28;20036;-84
2021/07/31 06:14:55;;;;;;;2.28;2.17;;;18.60;65.10;;;;;;5054599;28;20500;-84
2021/07/31 06:17:21;;;;;;;2.25;2.15;;;18.70;65.10;;;;;;5052059;28;20044;-84
2021/07/31 06:19:48;;;;;;;2.17;2.08;;;18.70;65.10;;;;;;5040031;28;20468;-85
2021/07/31 06:22:14;;;;;;;5.57;2.67;;;18.80;64.90;;;;;;5055752;28;20029;-85
2021/07/31 06:24:40;;;;;;;4.03;2.90;;;19.00;64.60;;;;;;5037698;28;20400;-84
2021/07/31 06:27:06;;;;;;;2.42;2.33;;;19.10;64.30;;;;;;5055502;28;20024;-83
2021/07/31 06:29:32;;;;;;;2.30;2.20;;;19.30;64.20;;;;;;5050052;28;20060;-84
2021/07/31 06:31:58;;;;;;;2.35;2.25;;;19.50;64.00;;;;;;5063246;28;20382;-85
2021/07/31 06:34:26;;;;;;;2.60;2.50;;;19.70;63.60;;;;;;5038139;28;20233;-84
2021/07/31 06:36:52;;;;;;;2.50;2.40;;;20.00;63.30;;;;;;5054562;28;20486;-84
2021/07/31 06:39:18;;;;;;;2.75;2.65;;;20.10;62.90;;;;;;5037135;28;20047;-85
2021/07/31 06:41:44;;;;;;;3.35;3.25;;;20.20;62.80;;;;;;5051964;28;20255;-84
2021/07/31 06:44:11;;;;;;;3.25;3.15;;;20.20;62.80;;;;;;5054588;28;20381;-84
2021/07/31 06:46:37;;;;;;;3.42;3.22;;;20.20;62.90;;;;;;5055827;28;20037;-83
2021/07/31 06:49:04;;;;;;;4.10;3.90;;;20.30;63.00;;;;;;5053112;28;20037;-85
2021/07/31 06:51:30;;;;;;;3.10;3.00;;;20.30;62.90;;;;;;5055253;28;20488;-84
2021/07/31 06:53:59;;;;;;;3.90;3.70;;;20.30;63.00;;;;;;5052851;28;20048;-84
2021/07/31 06:56:25;;;;;;;3.60;3.30;;;20.30;62.90;;;;;;5033849;28;20025;-85
2021/07/31 06:58:51;;;;;;;4.38;4.18;;;20.40;62.90;;;;;;5038718;28;20028;-85
2021/07/31 07:01:17;;;;;;;4.45;4.20;;;20.40;62.80;;;;;;5054483;28;20482;-84
2021/07/31 07:03:44;;;;;;;3.78;3.58;;;20.50;63.50;;;;;;5055051;28;20029;-86
2021/07/31 07:06:10;;;;;;;3.60;3.40;;;20.70;62.60;;;;;;5035693;28;20043;-85
2021/07/31 07:08:36;;;;;;;3.33;3.13;;;20.90;62.20;;;;;;5049248;28;20481;-85
2021/07/31 07:11:03;;;;;;;3.33;3.20;;;21.10;61.80;;;;;;5021895;28;20063;-87
2021/07/31 07:13:29;;;;;;;3.10;3.00;;;21.40;61.50;;;;;;5055346;28;20385;-84
2021/07/31 07:15:55;;;;;;;3.00;2.90;;;21.60;60.90;;;;;;5053623;28;20036;-85
2021/07/31 07:18:21;;;;;;;5.25;4.95;;;21.80;60.60;;;;;;5037083;28;20039;-85
2021/07/31 07:20:50;;;;;;;4.50;4.30;;;22.00;60.30;;;;;;5052519;28;20033;-84
2021/07/31 07:23:16;;;;;;;4.95;4.60;;;22.10;60.10;;;;;;5034851;28;20052;-85
2021/07/31 07:25:43;;;;;;;5.30;4.88;;;22.10;59.90;;;;;;5053370;28;20040;-85
2021/07/31 07:28:09;;;;;;;4.25;4.05;;;22.10;60.10;;;;;;5053124;28;20025;-85
2021/07/31 07:30:35;;;;;;;4.40;4.20;;;21.90;60.30;;;;;;5053718;28;20394;-85
2021/07/31 07:33:03;;;;;;;4.95;4.65;;;21.80;60.60;;;;;;5054048;28;20052;-84
2021/07/31 07:35:32;;;;;;;3.42;3.22;;;21.70;60.90;;;;;;5032997;28;20021;-85
2021/07/31 07:37:58;;;;;;;4.25;4.05;;;21.70;61.00;;;;;;5038168;28;20041;-84
2021/07/31 07:40:25;;;;;;;3.80;3.60;;;21.80;60.90;;;;;;5054651;28;20031;-84
2021/07/31 07:42:51;;;;;;;4.40;4.20;;;21.80;60.80;;;;;;5054616;28;20025;-84
2021/07/31 07:45:17;;;;;;;5.18;4.97;;;21.70;60.90;;;;;;5054078;28;20465;-85
2021/07/31 07:47:43;;;;;;;4.47;4.28;;;21.70;60.90;;;;;;5050184;28;20036;-85
2021/07/31 07:50:10;;;;;;;4.63;4.43;;;21.70;60.90;;;;;;5020019;28;20056;-86
2021/07/31 07:52:36;;;;;;;4.57;4.32;;;21.70;60.80;;;;;;5052782;28;20041;-85
2021/07/31 07:55:02;;;;;;;3.47;3.38;;;21.70;60.80;;;;;;5054423;28;20024;-85
2021/07/31 07:57:29;;;;;;;5.82;5.43;;;21.70;60.80;;;;;;5054353;28;20033;-85
2021/07/31 07:59:55;;;;;;;4.95;4.75;;;21.60;60.90;;;;;;5053911;28;20048;-84
2021/07/31 08:02:21;;;;;;;4.95;4.70;;;21.60;61.00;;;;;;5054814;28;20046;-85
2021/07/31 08:04:47;;;;;;;6.20;5.30;;;21.60;61.00;;;;;;5042479;28;20032;-85
2021/07/31 08:07:13;;;;;;;4.70;4.50;;;21.70;60.90;;;;;;5056247;28;20021;-85
2021/07/31 08:09:40;;;;;;;5.32;5.03;;;21.70;60.70;;;;;;5040310;28;20056;-85
2021/07/31 08:12:07;;;;;;;6.30;5.60;;;21.90;60.50;;;;;;5023967;28;20095;-85
2021/07/31 08:14:33;;;;;;;6.10;5.80;;;22.10;60.20;;;;;;5053866;28;20040;-85
2021/07/31 08:16:59;;;;;;;4.20;4.00;;;22.30;60.60;;;;;;5070816;28;20025;-84
2021/07/31 08:19:25;;;;;;;4.03;3.83;;;22.50;59.40;;;;;;5041773;28;20049;-86
2021/07/31 08:21:51;;;;;;;4.57;4.35;;;22.70;59.10;;;;;;5057661;28;20025;-85
2021/07/31 08:24:17;;;;;;;4.55;4.35;;;22.90;58.80;;;;;;5040136;28;20029;-86
2021/07/31 08:26:45;;;;;;;4.40;4.20;;;23.00;58.80;;;;;;5053605;28;20040;-85
2021/07/31 08:29:11;;;;;;;4.60;4.25;;;23.00;58.70;;;;;;5056674;28;20060;-85
2021/07/31 08:31:40;;;;;;;4.35;4.05;;;22.90;58.70;;;;;;5054494;28;20049;-84
2021/07/31 08:34:06;;;;;;;4.18;3.97;;;22.90;58.80;;;;;;5057276;28;20041;-85
2021/07/31 08:36:32;;;;;;;4.20;4.00;;;22.80;58.90;;;;;;5057649;28;20469;-84
2021/07/31 08:38:58;;;;;;;13.88;4.80;;;23.00;58.80;;;;;;5056763;28;20029;-83
2021/07/31 08:41:25;;;;;;;4.50;4.20;;;23.20;58.60;;;;;;5036458;28;20036;-85
2021/07/31 08:43:51;;;;;;;4.90;4.70;;;23.40;58.20;;;;;;5059618;28;20037;-86
2021/07/31 08:46:18;;;;;;;4.82;4.63;;;23.70;57.70;;;;;;5037789;28;20029;-85
2021/07/31 08:48:44;;;;;;;4.97;4.78;;;23.90;57.40;;;;;;5022848;28;20029;-85
2021/07/31 08:51:10;;;;;;;5.00;4.80;;;24.00;57.20;;;;;;5023187;28;20032;-85
2021/07/31 08:53:36;;;;;;;5.28;4.97;;;23.90;57.30;;;;;;5018356;28;20367;-85
2021/07/31 08:56:02;;;;;;;5.05;4.85;;;23.80;57.30;;;;;;5058893;28;20028;-85
2021/07/31 08:58:28;;;;;;;4.95;4.75;;;23.80;57.30;;;;;;5055746;28;20045;-85
2021/07/31 09:00:56;;;;;;;5.13;4.93;;;23.80;57.20;;;;;;5055863;28;20049;-86
2021/07/31 09:03:22;;;;;;;5.22;5.03;;;23.80;57.20;;;;;;5056880;28;20025;-86
2021/07/31 09:05:48;;;;;;;5.07;4.88;;;23.70;57.00;;;;;;5005699;28;20036;-86
2021/07/31 09:08:15;;;;;;;4.80;4.60;;;23.60;57.40;;;;;;5054425;28;20033;-85
2021/07/31 09:10:42;;;;;;;5.10;4.88;;;23.60;57.40;;;;;;5058472;28;20039;-85
2021/07/31 09:13:10;;;;;;;5.07;4.82;;;23.70;57.20;;;;;;5056997;28;20028;-85
2021/07/31 09:15:38;;;;;;;5.95;5.65;;;24.00;56.80;;;;;;5056586;28;20040;-86
2021/07/31 09:18:31;;;;;;;6.35;6.05;;;24.30;56.30;;;;;;5056724;28;20032;-85
2021/07/31 09:21:02;;;;;;;5.50;5.30;;;24.50;55.70;;;;;;5024292;28;20036;-85
2021/07/31 09:23:34;;;;;;;;;;;24.40;55.60;;;;;;5052651;28;20022;-85
2021/07/31 09:26:00;;;;;;;4.97;4.78;;;24.30;55.80;;;;;;5066136;28;19909;-85
2021/07/31 09:28:27;;;;;;;5.45;5.18;;;24.10;56.00;;;;;;5056703;28;20032;-85
2021/07/31 09:30:53;;;;;;;4.93;4.72;;;24.00;56.20;;;;;;5055364;28;20025;-84
2021/07/31 09:33:20;;;;;;;5.22;4.93;;;23.90;56.20;;;;;;5038415;28;20045;-85
2021/07/31 09:35:46;;;;;;;4.82;4.63;;;23.70;56.30;;;;;;5054066;28;20044;-85
2021/07/31 09:38:13;;;;;;;5.00;4.80;;;23.50;56.30;;;;;;5055584;28;20580;-85
2021/07/31 09:40:39;;;;;;;8.18;5.00;;;23.50;56.40;;;;;;5054440;28;20044;-85
2021/07/31 09:43:15;;;;;;;4.40;4.20;;;23.60;56.30;;;;;;5056420;28;20029;-86
2021/07/31 09:45:42;;;;;;;5.00;4.80;;;23.60;55.80;;;;;;5039010;28;20036;-85
2021/07/31 09:48:09;;;;;;;5.13;4.93;;;23.70;55.60;;;;;;5022003;28;20047;-84
2021/07/31 09:50:48;;;;;;;5.20;5.00;;;23.70;55.50;;;;;;5017917;28;20037;-85
2021/07/31 09:53:15;;;;;;;4.85;4.65;;;23.80;55.40;;;;;;5037588;28;20025;-85
2021/07/31 09:55:48;;;;;;;5.10;4.90;;;23.80;55.10;;;;;;5054728;28;20029;-85
2021/07/31 09:58:16;;;;;;;5.25;5.05;;;24.00;55.00;;;;;;5056142;28;20021;-86
2021/07/31 10:00:46;;;;;;;5.50;5.30;;;24.20;54.70;;;;;;5037848;28;20393;-85
2021/07/31 10:03:15;;;;;;;7.05;6.75;;;24.40;54.30;;;;;;5020234;28;20024;-86
2021/07/31 10:05:42;;;;;;;7.47;7.07;;;24.80;53.80;;;;;;5035007;28;20029;-86
2021/07/31 10:08:10;;;;;;;6.85;6.55;;;25.00;53.50;;;;;;5037841;28;20032;-85
2021/07/31 10:10:36;;;;;;;7.40;7.10;;;25.00;53.20;;;;;;5056911;28;20041;-85
2021/07/31 10:13:03;;;;;;;8.77;8.38;;;25.10;53.20;;;;;;5021728;28;20028;-85
2021/07/31 10:15:29;;;;;;;11.13;10.63;;;25.30;53.00;;;;;;5037638;28;20389;-86
2021/07/31 10:17:55;;;;;;;9.75;9.32;;;25.60;52.70;;;;;;5054177;28;20028;-86
2021/07/31 10:20:24;;;;;;;10.30;9.75;;;25.80;52.30;;;;;;5034865;28;20028;-86
2021/07/31 10:22:50;;;;;;;10.00;9.55;;;25.90;52.00;;;;;;5057080;28;20374;-86
2021/07/31 10:25:20;;;;;;;8.73;8.32;;;26.00;52.00;;;;;;5036015;28;20501;-86
2021/07/31 10:27:47;;;;;;;9.07;8.68;;;26.10;51.80;;;;;;5055168;28;20045;-85
2021/07/31 10:30:38;;;;;;;9.18;8.75;;;26.20;51.60;;;;;;5037027;28;20305;-86
2021/07/31 10:33:06;;;;;;;8.82;8.43;;;26.40;51.40;;;;;;5004124;28;20041;-85
2021/07/31 10:35:36;;;;;;;8.48;8.07;;;26.40;51.40;;;;;;5015469;28;20045;-85
2021/07/31 10:38:09;;;;;;;9.07;8.65;;;26.20;51.50;;;;;;5045372;28;20036;-86
2021/07/31 10:40:41;;;;;;;7.78;7.38;;;26.10;51.60;;;;;;5051058;28;20037;-86
2021/07/31 10:43:08;;;;;;;8.10;7.70;;;25.90;51.80;;;;;;5032401;28;20030;-86
2021/07/31 10:45:34;;;;;;;8.00;7.60;;;25.90;51.80;;;;;;5034292;28;20034;-85
2021/07/31 10:48:33;;;;;;;7.20;6.90;;;25.90;51.70;;;;;;5017102;28;20378;-86
2021/07/31 10:50:59;;;;;;;8.40;8.00;;;26.00;51.30;;;;;;5021479;28;20052;-85
2021/07/31 10:53:45;;;;;;;8.38;7.97;;;26.10;51.20;;;;;;5030519;28;20022;-85
2021/07/31 10:56:12;;;;;;;8.18;7.78;;;26.30;51.10;;;;;;5046573;28;20033;-86
2021/07/31 10:58:38;;;;;;;7.93;7.53;;;26.60;50.70;;;;;;5049516;28;20036;-85
2021/07/31 11:01:21;;;;;;;7.32;7.03;;;26.70;50.30;;;;;;5016544;28;20091;-86
2021/07/31 11:03:47;;;;;;;10.00;9.50;;;26.70;50.20;;;;;;5033796;28;20037;-86
2021/07/31 11:06:14;;;;;;;8.48;8.07;;;26.70;50.30;;;;;;5033890;28;20028;-84
2021/07/31 11:08:46;;;;;;;7.70;7.40;;;26.60;50.10;;;;;;5031160;28;20042;-86
2021/07/31 11:11:15;;;;;;;7.40;7.10;;;26.40;50.30;;;;;;5034220;28;20040;-86
2021/07/31 11:13:41;;;;;;;8.48;8.07;;;26.00;50.60;;;;;;5036238;28;20017;-86
2021/07/31 11:16:17;;;;;;;7.47;7.15;;;25.80;50.90;;;;;;5034473;28;20030;-80
2021/07/31 11:18:51;;;;;;;6.78;6.47;;;25.50;51.10;;;;;;5004095;28;20034;-86
2021/07/31 11:21:18;;;;;;;6.78;6.47;;;25.30;51.30;;;;;;5032976;28;20398;-86
2021/07/31 11:24:05;;;;;;;6.88;6.57;;;25.20;51.50;;;;;;5032159;28;20029;-86
2021/07/31 11:26:46;;;;;;;6.38;6.07;;;25.00;51.40;;;;;;5013616;28;20030;-86
2021/07/31 11:29:15;;;;;;;7.00;6.60;;;24.90;51.50;;;;;;5043020;28;20048;-86
2021/07/31 11:31:44;;;;;;;6.68;6.38;;;24.90;51.40;;;;;;5041076;28;20052;-86
2021/07/31 11:34:12;;;;;;;6.45;6.15;;;25.20;51.10;;;;;;5022774;28;20048;-87
2021/07/31 11:36:40;;;;;;;8.65;8.23;;;25.60;50.70;;;;;;5041189;28;20021;-85
2021/07/31 11:39:06;;;;;;;7.57;7.28;;;26.00;50.10;;;;;;5040757;28;20036;-85
2021/07/31 11:41:42;;;;;;;8.80;8.40;;;26.20;49.80;;;;;;5052900;28;20417;-86
2021/07/31 11:44:11;;;;;;;8.07;7.68;;;26.20;49.70;;;;;;5067806;28;20036;-85
2021/07/31 11:46:41;;;;;;;7.22;6.93;;;26.10;49.70;;;;;;5026435;28;20037;-85
2021/07/31 11:49:10;;;;;;;7.50;7.10;;;26.10;49.70;;;;;;5041221;28;20033;-86
2021/07/31 11:51:43;;;;;;;9.23;8.82;;;25.90;49.80;;;;;;5058041;28;20045;-86
2021/07/31 11:54:09;;;;;;;7.82;7.45;;;25.80;49.90;;;;;;5040831;28;20016;-86
2021/07/31 11:56:37;;;;;;;7.00;6.70;;;25.60;50.00;;;;;;5054409;28;20036;-85
2021/07/31 11:59:05;;;;;;;7.20;6.88;;;25.50;50.10;;;;;;5025244;28;20025;-84
2021/07/31 12:01:32;;;;;;;7.40;7.03;;;25.50;50.20;;;;;;5041100;28;20036;-86
2021/07/31 12:03:58;;;;;;;7.20;6.90;;;25.40;50.20;;;;;;5058360;28;20470;-85
2021/07/31 12:06:30;;;;;;;7.40;7.00;;;25.30;50.20;;;;;;5040542;28;20037;-85
2021/07/31 12:08:59;;;;;;;7.45;7.15;;;25.10;50.90;;;;;;5056968;28;20044;-85
2021/07/31 12:11:39;;;;;;;6.97;6.68;;;25.10;50.30;;;;;;5036768;28;20045;-86
2021/07/31 12:14:38;;;;;;;7.78;7.43;;;25.30;50.20;;;;;;5049492;28;20043;-86
2021/07/31 12:17:21;;;;;;;8.93;8.52;;;25.60;49.70;;;;;;5067253;28;20044;-85
2021/07/31 12:20:00;;;;;;;7.53;7.22;;;25.90;49.10;;;;;;5056944;28;20067;-86
2021/07/31 12:22:30;;;;;;;9.82;9.40;;;26.10;48.80;;;;;;5056644;28;20033;-86
2021/07/31 12:25:19;;;;;;;11.02;10.52;;;26.30;48.40;;;;;;5040333;28;20025;-86
2021/07/31 12:27:52;;;;;;;8.82;8.43;;;26.40;48.20;;;;;;5057495;28;20056;-86
2021/07/31 12:30:22;;;;;;;9.73;9.27;;;26.60;48.00;;;;;;5039381;28;20047;-86
2021/07/31 12:32:48;;;;;;;9.15;8.75;;;26.80;47.80;;;;;;5021189;28;20041;-86
2021/07/31 12:35:32;;;;;;;7.55;7.25;;;26.90;47.50;;;;;;5056176;28;20477;-86
2021/07/31 12:37:59;;;;;;;8.32;7.93;;;26.90;47.20;;;;;;5070941;28;20036;-85
2021/07/31 12:40:25;;;;;;;8.70;8.30;;;27.00;47.10;;;;;;5040377;28;20036;-86
2021/07/31 12:42:51;;;;;;;8.23;7.82;;;26.90;47.00;;;;;;5039583;28;20385;-86
2021/07/31 12:45:17;;;;;;;8.45;8.05;;;26.80;47.20;;;;;;5056383;28;20032;-85
2021/07/31 12:47:43;;;;;;;8.60;8.20;;;26.70;47.30;;;;;;5036912;28;20021;-86